createdAt,value
2018-05-14T00:02:16.864Z,143.10
2018-05-14T00:04:45.144Z,141.20
2018-05-14T00:07:13.387Z,118.93
2018-05-14T00:09:42.036Z,65.57
2018-05-14T00:12:10.255Z,75.03
2018-05-14T00:14:38.495Z,61.87
2018-05-14T00:17:07.502Z,46.37
2018-05-14T00:19:35.752Z,49.47
2018-05-14T00:22:04.004Z,85.93
2018-05-14T00:24:32.226Z,45.73
2018-05-14T00:27:00.490Z,42.90
2018-05-14T00:29:29.490Z,44.13
2018-05-14T00:31:57.742Z,44.73
2018-05-14T00:34:26.738Z,46.57
2018-05-14T00:36:55.762Z,50.90
2018-05-14T00:39:24.004Z,87.07
2018-05-14T00:41:53.397Z,63.80
2018-05-14T00:44:21.600Z,65.13
2018-05-14T00:46:49.863Z,53.83
2018-05-14T00:49:18.880Z,63.43
2018-05-14T00:51:47.124Z,59.23
2018-05-14T00:54:16.126Z,80.77
2018-05-14T00:56:44.388Z,74.97
2018-05-14T00:59:13.398Z,129.97
2018-05-14T01:01:41.654Z,81.77
2018-05-14T01:04:10.663Z,161.33
2018-05-14T01:06:38.970Z,110.87
2018-05-14T01:09:07.167Z,127.60
2018-05-14T01:11:35.423Z,130.50
2018-05-14T01:14:03.663Z,141.87
2018-05-14T01:16:31.920Z,139.13
2018-05-14T01:19:00.924Z,175.97
2018-05-14T01:21:29.187Z,183.33
2018-05-14T01:23:58.569Z,384.33
2018-05-14T01:26:26.790Z,125.63
2018-05-14T01:28:55.047Z,262.47
2018-05-14T01:31:23.288Z,113.27
2018-05-14T01:33:51.543Z,382.87
2018-05-14T01:36:19.789Z,257.03
2018-05-14T01:38:48.050Z,221.87
2018-05-14T01:41:16.292Z,99.90
2018-05-14T01:43:45.319Z,286.43
2018-05-14T01:46:13.564Z,161.27
2018-05-14T01:48:42.587Z,164.00
2018-05-14T01:51:10.828Z,125.13
2018-05-14T01:53:39.856Z,108.40
2018-05-14T01:56:08.103Z,67.57
2018-05-14T01:58:37.127Z,161.33
2018-05-14T02:01:05.371Z,96.40
2018-05-14T02:03:34.387Z,77.13
2018-05-14T02:06:03.127Z,80.77
2018-05-14T02:08:31.347Z,94.23
2018-05-14T02:10:59.588Z,138.27
2018-05-14T02:13:28.603Z,62.70
2018-05-14T02:15:56.851Z,109.30
2018-05-14T02:18:25.868Z,89.80
2018-05-14T02:20:54.112Z,52.50
2018-05-14T02:23:23.139Z,104.90
2018-05-14T02:25:51.379Z,49.23
2018-05-14T02:28:20.409Z,83.23
2018-05-14T02:30:48.643Z,70.30
2018-05-14T02:33:17.664Z,57.70
2018-05-14T02:35:45.904Z,74.40
2018-05-14T02:38:14.151Z,167.40
2018-05-14T02:40:42.392Z,53.60
2018-05-14T02:43:10.639Z,76.87
2018-05-14T02:45:40.033Z,44.00
2018-05-14T02:48:08.251Z,59.90
2018-05-14T02:50:36.510Z,46.40
2018-05-14T02:53:04.752Z,81.00
2018-05-14T02:55:33.767Z,39.00
2018-05-14T02:58:02.017Z,76.60
2018-05-14T03:00:30.259Z,56.63
2018-05-14T03:02:58.496Z,35.70
2018-05-14T03:05:26.758Z,28.57
2018-05-14T03:07:55.759Z,61.77
2018-05-14T03:10:24.121Z,30.20
2018-05-14T03:12:53.403Z,30.03
2018-05-14T03:15:21.629Z,27.70
2018-05-14T03:17:50.324Z,26.43
2018-05-14T03:20:18.499Z,27.43
2018-05-14T03:22:47.320Z,27.13
2018-05-14T03:25:15.549Z,26.20
2018-05-14T03:27:43.783Z,25.50
2018-05-14T03:30:12.801Z,25.27
2018-05-14T03:32:41.042Z,25.60
2018-05-14T03:35:10.055Z,23.03
2018-05-14T03:37:38.707Z,22.80
2018-05-14T03:40:06.931Z,22.83
2018-05-14T03:42:35.177Z,24.10
2018-05-14T03:45:04.201Z,23.33
2018-05-14T03:47:32.438Z,24.80
2018-05-14T03:50:01.443Z,22.77
2018-05-14T03:52:29.699Z,23.43
2018-05-14T03:54:58.703Z,24.27
2018-05-14T03:57:26.963Z,25.13
2018-05-14T04:00:07.920Z,25.97
2018-05-14T04:02:48.078Z,24.67
2018-05-14T04:05:17.779Z,23.30
2018-05-14T04:07:46.041Z,22.30
2018-05-14T04:10:14.270Z,22.17
2018-05-14T04:12:42.527Z,20.67
2018-05-14T04:15:11.531Z,21.50
2018-05-14T04:17:39.792Z,20.97
2018-05-14T04:20:08.801Z,21.50
2018-05-14T04:22:37.063Z,20.77
2018-05-14T04:25:06.070Z,20.90
2018-05-14T04:27:34.332Z,22.20
2018-05-14T04:30:03.328Z,20.37
2018-05-14T04:32:31.587Z,17.80
2018-05-14T04:35:00.975Z,16.90
2018-05-14T04:37:29.199Z,15.63
2018-05-14T04:39:57.434Z,15.20
2018-05-14T04:42:26.530Z,15.47
2018-05-14T04:44:55.537Z,13.97
2018-05-14T04:47:23.793Z,13.70
2018-05-14T04:49:52.795Z,12.90
2018-05-14T04:52:21.814Z,12.97
2018-05-14T04:54:50.062Z,13.37
2018-05-14T04:57:19.079Z,13.67
2018-05-14T04:59:47.315Z,12.87
2018-05-14T05:02:16.706Z,11.97
2018-05-14T05:04:44.915Z,12.97
2018-05-14T05:07:13.170Z,12.23
2018-05-14T05:09:42.167Z,12.13
2018-05-14T05:12:10.409Z,13.00
2018-05-14T05:14:38.674Z,12.87
2018-05-14T05:17:07.005Z,11.80
2018-05-14T05:19:35.650Z,11.70
2018-05-14T05:22:03.868Z,12.10
2018-05-14T05:24:32.119Z,11.60
2018-05-14T05:27:01.120Z,11.67
2018-05-14T05:29:29.386Z,12.13
2018-05-14T05:31:58.386Z,11.40
2018-05-14T05:34:26.714Z,13.57
2018-05-14T05:36:55.652Z,13.40
2018-05-14T05:39:23.914Z,12.87
2018-05-14T05:41:52.905Z,11.20
2018-05-14T05:44:21.922Z,11.37
2018-05-14T05:46:50.575Z,11.50
2018-05-14T05:49:19.583Z,11.67
2018-05-14T05:51:47.810Z,14.50
2018-05-14T05:54:16.056Z,11.93
2018-05-14T05:56:44.294Z,12.33
2018-05-14T05:59:13.311Z,12.07
2018-05-14T06:01:41.565Z,12.60
2018-05-14T06:04:10.584Z,11.40
2018-05-14T06:06:38.822Z,14.13
2018-05-14T06:09:07.848Z,13.07
2018-05-14T06:11:36.078Z,11.47
2018-05-14T06:14:05.092Z,10.97
2018-05-14T06:16:33.343Z,13.00
2018-05-14T06:19:02.415Z,11.33
2018-05-14T06:21:30.658Z,10.90
2018-05-14T06:23:58.910Z,11.13
2018-05-14T06:26:27.145Z,10.93
2018-05-14T06:28:55.399Z,11.77
2018-05-14T06:31:23.645Z,10.47
2018-05-14T06:33:51.900Z,11.87
2018-05-14T06:36:20.147Z,10.60
2018-05-14T06:38:48.383Z,10.93
2018-05-14T06:41:16.634Z,11.27
2018-05-14T06:43:44.869Z,11.03
2018-05-14T06:46:13.112Z,10.67
2018-05-14T06:48:41.343Z,10.30
2018-05-14T06:51:09.603Z,10.90
2018-05-14T06:53:38.628Z,12.83
2018-05-14T06:56:07.618Z,11.50
2018-05-14T06:58:35.850Z,11.27
2018-05-14T07:01:04.086Z,10.93
2018-05-14T07:03:32.603Z,11.80
2018-05-14T07:06:00.831Z,12.43
2018-05-14T07:08:29.065Z,11.53
2018-05-14T07:10:58.078Z,13.57
2018-05-14T07:13:26.314Z,11.13
2018-05-14T07:15:54.552Z,10.97
2018-05-14T07:18:22.787Z,10.73
2018-05-14T07:20:51.887Z,10.60
2018-05-14T07:23:20.034Z,11.93
2018-05-14T07:25:49.055Z,11.23
2018-05-14T07:28:17.299Z,11.47
2018-05-14T07:30:46.320Z,13.13
2018-05-14T07:33:14.563Z,10.80
2018-05-14T07:35:42.817Z,12.73
2018-05-14T07:38:11.051Z,11.07
2018-05-14T07:40:39.307Z,10.97
2018-05-14T07:43:07.540Z,10.60
2018-05-14T07:45:35.783Z,13.63
2018-05-14T07:48:04.019Z,11.33
2018-05-14T07:50:32.272Z,11.13
2018-05-14T07:53:00.506Z,11.07
2018-05-14T07:55:28.756Z,11.07
2018-05-14T07:57:56.988Z,10.67
2018-05-14T08:00:25.324Z,10.70
2018-05-14T08:02:53.526Z,10.97
2018-05-14T08:05:21.746Z,12.67
2018-05-14T08:07:49.983Z,12.80
2018-05-14T08:10:18.223Z,10.73
2018-05-14T08:12:46.463Z,10.23
2018-05-14T08:15:15.479Z,12.87
2018-05-14T08:17:43.716Z,10.77
2018-05-14T08:20:12.737Z,9.83
2018-05-14T08:22:40.966Z,10.27
2018-05-14T08:25:09.195Z,10.23
2018-05-14T08:27:37.534Z,9.93
2018-05-14T08:30:06.438Z,11.67
2018-05-14T08:32:34.692Z,11.65
2018-05-14T08:35:02.916Z,9.07
2018-05-14T08:37:31.163Z,9.00
2018-05-14T08:39:59.389Z,8.15
2018-05-14T08:42:27.684Z,9.88
2018-05-14T08:44:56.065Z,8.27
2018-05-14T08:47:24.310Z,8.13
2018-05-14T08:49:52.547Z,10.18
2018-05-14T08:52:20.795Z,9.98
2018-05-14T08:54:49.790Z,10.07
2018-05-14T08:57:18.807Z,10.20
2018-05-14T08:59:47.047Z,11.23
2018-05-14T09:02:16.057Z,7.93
2018-05-14T09:04:44.287Z,9.40
2018-05-14T09:07:12.535Z,8.02
2018-05-14T09:09:40.768Z,9.52
2018-05-14T09:12:09.775Z,8.82
2018-05-14T09:14:38.012Z,9.18
2018-05-14T09:17:06.247Z,8.43
2018-05-14T09:19:34.578Z,9.70
2018-05-14T09:22:03.487Z,7.43
2018-05-14T09:24:31.728Z,8.90
2018-05-14T09:26:59.987Z,7.82
2018-05-14T09:29:28.219Z,8.57
2018-05-14T09:31:56.455Z,7.97
2018-05-14T09:34:24.700Z,7.80
2018-05-14T09:36:52.933Z,6.75
2018-05-14T09:39:21.188Z,9.18
2018-05-14T09:41:50.190Z,10.77
2018-05-14T09:44:18.753Z,8.20
2018-05-14T09:46:46.980Z,7.18
2018-05-14T09:49:15.218Z,6.55
2018-05-14T09:51:43.443Z,6.87
2018-05-14T09:54:11.687Z,10.75
2018-05-14T09:56:39.919Z,6.03
2018-05-14T09:59:08.163Z,7.15
2018-05-14T10:01:36.395Z,6.80
2018-05-14T10:04:04.648Z,8.20
2018-05-14T10:06:33.638Z,5.82
2018-05-14T10:09:02.936Z,8.50
2018-05-14T10:11:31.159Z,5.87
2018-05-14T10:13:59.411Z,7.25
2018-05-14T10:16:27.639Z,6.90
2018-05-14T10:18:56.330Z,5.75
2018-05-14T10:21:24.533Z,5.68
2018-05-14T10:23:52.779Z,7.40
2018-05-14T10:26:21.007Z,6.12
2018-05-14T10:28:49.251Z,6.70
2018-05-14T10:31:17.475Z,6.90
2018-05-14T10:33:45.714Z,5.82
2018-05-14T10:36:13.963Z,5.32
2018-05-14T10:38:42.195Z,4.65
2018-05-14T10:41:10.801Z,7.75
2018-05-14T10:43:39.003Z,6.18
2018-05-14T10:46:07.245Z,6.43
2018-05-14T10:48:35.475Z,5.15
2018-05-14T10:51:03.723Z,6.43
2018-05-14T10:53:31.956Z,6.37
2018-05-14T10:56:00.494Z,5.47
2018-05-14T10:58:29.133Z,4.12
2018-05-14T11:00:57.346Z,5.82
2018-05-14T11:03:25.584Z,4.37
2018-05-14T11:05:53.827Z,5.22
2018-05-14T11:08:22.055Z,6.78
2018-05-14T11:10:50.308Z,4.70
2018-05-14T11:13:18.535Z,4.25
2018-05-14T11:15:46.779Z,4.28
2018-05-14T11:18:15.017Z,4.03
2018-05-14T11:20:43.260Z,4.57
2018-05-14T11:23:11.491Z,5.43
2018-05-14T11:25:40.507Z,4.25
2018-05-14T11:28:08.736Z,6.37
2018-05-14T11:30:36.979Z,5.65
2018-05-14T11:33:05.219Z,3.90
2018-05-14T11:35:33.459Z,3.80
2018-05-14T11:38:01.689Z,6.85
2018-05-14T11:40:29.923Z,5.37
2018-05-14T11:42:58.923Z,5.30
2018-05-14T11:45:27.170Z,5.07
2018-05-14T11:47:55.407Z,3.72
2018-05-14T11:50:23.666Z,4.05
2018-05-14T11:52:51.903Z,5.55
2018-05-14T11:55:20.912Z,5.07
2018-05-14T11:57:49.159Z,5.10
2018-05-14T12:00:17.411Z,4.57
2018-05-14T12:02:45.746Z,6.68
2018-05-14T12:05:13.930Z,5.05
2018-05-14T12:07:42.172Z,6.35
2018-05-14T12:10:11.257Z,4.15
2018-05-14T12:12:40.201Z,5.00
2018-05-14T12:15:08.411Z,5.00
2018-05-14T12:17:36.662Z,5.97
2018-05-14T12:20:04.929Z,6.47
2018-05-14T12:22:33.219Z,4.75
2018-05-14T12:25:01.431Z,7.28
2018-05-14T12:27:30.439Z,5.22
2018-05-14T12:29:58.679Z,5.37
2018-05-14T12:32:27.691Z,6.37
2018-05-14T12:34:55.927Z,4.95
2018-05-14T12:37:24.166Z,3.30
2018-05-14T12:39:52.403Z,3.80
2018-05-14T12:42:21.419Z,5.30
2018-05-14T12:44:49.964Z,3.85
2018-05-14T12:47:18.199Z,6.20
2018-05-14T12:49:46.434Z,7.28
2018-05-14T12:52:14.691Z,4.18
2018-05-14T12:54:43.694Z,5.78
2018-05-14T12:57:12.775Z,4.82
2018-05-14T12:59:41.024Z,7.80
2018-05-14T13:02:09.271Z,4.25
2018-05-14T13:04:37.511Z,5.20
2018-05-14T13:07:06.920Z,4.72
2018-05-14T13:09:35.124Z,4.78
2018-05-14T13:12:03.354Z,4.57
2018-05-14T13:14:32.377Z,5.87
2018-05-14T13:17:00.915Z,3.85
2018-05-14T13:19:29.155Z,5.10
2018-05-14T13:21:57.386Z,6.47
2018-05-14T13:24:25.631Z,7.03
2018-05-14T13:26:53.879Z,6.00
2018-05-14T13:29:22.119Z,4.50
2018-05-14T13:31:50.359Z,7.45
2018-05-14T13:34:18.599Z,7.95
2018-05-14T13:36:46.828Z,8.50
2018-05-14T13:39:15.083Z,6.57
2018-05-14T13:41:44.084Z,6.60
2018-05-14T13:44:13.197Z,7.50
2018-05-14T13:46:41.737Z,7.57
2018-05-14T13:49:09.965Z,5.05
2018-05-14T13:51:38.196Z,7.53
2018-05-14T13:54:07.211Z,7.47
2018-05-14T13:56:35.443Z,5.47
2018-05-14T13:59:03.687Z,4.85
2018-05-14T14:01:31.915Z,6.85
2018-05-14T14:04:00.937Z,6.85
2018-05-14T14:06:29.172Z,9.65
2018-05-14T14:08:57.421Z,6.37
2018-05-14T14:11:25.719Z,7.57
2018-05-14T14:13:53.915Z,4.12
2018-05-14T14:16:22.146Z,4.65
2018-05-14T14:18:50.374Z,7.10
2018-05-14T14:21:18.628Z,7.90
2018-05-14T14:23:47.837Z,7.00
2018-05-14T14:26:16.636Z,7.70
2018-05-14T14:28:44.866Z,4.70
2018-05-14T14:31:13.111Z,6.12
2018-05-14T14:33:41.342Z,7.45
2018-05-14T14:36:09.685Z,7.30
2018-05-14T14:38:37.811Z,5.30
2018-05-14T14:41:06.060Z,5.00
2018-05-14T14:43:35.011Z,6.22
2018-05-14T14:46:03.253Z,4.70
2018-05-14T14:48:31.481Z,7.72
2018-05-14T14:51:00.487Z,4.20
2018-05-14T14:53:28.731Z,4.90
2018-05-14T14:55:56.974Z,5.60
2018-05-14T14:58:25.223Z,6.75
2018-05-14T15:00:54.492Z,6.90
2018-05-14T15:03:22.716Z,5.50
2018-05-14T15:05:50.968Z,5.65
2018-05-14T15:08:19.201Z,4.32
2018-05-14T15:10:47.445Z,11.38
2018-05-14T15:13:16.442Z,4.37
2018-05-14T15:15:44.691Z,5.40
2018-05-14T15:18:12.918Z,8.70
2018-05-14T15:20:41.191Z,8.45
2018-05-14T15:23:09.418Z,5.62
2018-05-14T15:25:37.655Z,7.65
2018-05-14T15:28:06.663Z,5.82
2018-05-14T15:30:34.905Z,5.37
2018-05-14T15:33:03.146Z,6.28
2018-05-14T15:35:31.375Z,9.18
2018-05-14T15:37:59.623Z,6.32
2018-05-14T15:40:27.852Z,4.95
2018-05-14T15:42:56.105Z,8.75
2018-05-14T15:45:24.322Z,5.90
2018-05-14T15:47:52.570Z,5.53
2018-05-14T15:50:20.808Z,6.90
2018-05-14T15:52:49.833Z,5.80
2018-05-14T15:55:18.079Z,4.20
2018-05-14T15:57:48.538Z,4.07
2018-05-14T16:00:17.488Z,5.37
2018-05-14T16:02:47.533Z,5.07
2018-05-14T16:05:15.787Z,6.28
2018-05-14T16:07:45.631Z,7.07
2018-05-14T16:10:15.903Z,5.10
2018-05-14T16:12:44.299Z,4.55
2018-05-14T16:15:12.519Z,5.95
2018-05-14T16:17:40.767Z,8.40
2018-05-14T16:20:09.000Z,4.47
2018-05-14T16:22:37.318Z,3.97
2018-05-14T16:25:05.632Z,4.85
2018-05-14T16:27:33.867Z,6.20
2018-05-14T16:30:02.231Z,6.40
2018-05-14T16:32:31.247Z,4.15
2018-05-14T16:34:59.478Z,6.30
2018-05-14T16:37:28.481Z,4.78
2018-05-14T16:39:56.733Z,5.62
2018-05-14T16:42:25.799Z,7.03
2018-05-14T16:44:54.230Z,7.40
2018-05-14T16:47:23.250Z,3.75
2018-05-14T16:49:51.514Z,6.87
2018-05-14T16:52:19.869Z,4.40
2018-05-14T16:54:48.090Z,6.10
2018-05-14T16:57:16.325Z,6.18
2018-05-14T16:59:46.177Z,5.78
2018-05-14T17:02:14.595Z,5.22
2018-05-14T17:04:43.996Z,7.32
2018-05-14T17:07:12.987Z,6.30
2018-05-14T17:09:42.703Z,7.22
2018-05-14T17:12:11.733Z,6.85
2018-05-14T17:14:39.975Z,6.40
2018-05-14T17:17:08.299Z,5.95
2018-05-14T17:19:37.001Z,6.60
2018-05-14T17:22:05.268Z,6.00
2018-05-14T17:24:33.512Z,5.15
2018-05-14T17:27:01.747Z,7.43
2018-05-14T17:29:30.767Z,4.62
2018-05-14T17:31:58.987Z,8.50
2018-05-14T17:34:27.227Z,6.32
2018-05-14T17:36:55.458Z,5.32
2018-05-14T17:39:24.475Z,5.50
2018-05-14T17:41:52.709Z,6.32
2018-05-14T17:44:20.939Z,4.23
2018-05-14T17:46:49.162Z,5.90
2018-05-14T17:49:18.179Z,6.63
2018-05-14T17:51:46.410Z,6.20
2018-05-14T17:54:14.659Z,7.10
2018-05-14T17:56:42.923Z,6.13
2018-05-14T17:59:11.151Z,6.23
2018-05-14T18:01:40.160Z,6.07
2018-05-14T18:04:09.154Z,7.43
2018-05-14T18:06:37.406Z,6.50
2018-05-14T18:09:05.703Z,11.47
2018-05-14T18:11:33.963Z,7.17
2018-05-14T18:14:02.955Z,6.00
2018-05-14T18:16:31.973Z,6.90
2018-05-14T18:19:00.211Z,4.83
2018-05-14T18:21:34.259Z,6.37
2018-05-14T18:24:02.489Z,4.47
2018-05-14T18:29:34.294Z,7.47
2018-05-14T18:32:04.464Z,5.20
2018-05-14T18:34:38.495Z,6.37
2018-05-14T18:37:06.752Z,7.00
2018-05-14T18:39:34.979Z,4.73
2018-05-14T18:42:03.223Z,7.27
2018-05-14T18:44:33.228Z,6.07
2018-05-14T18:47:01.471Z,4.67
2018-05-14T18:49:29.711Z,6.47
2018-05-14T18:51:57.967Z,5.30
2018-05-14T18:54:26.186Z,7.17
2018-05-14T18:56:54.468Z,6.13
2018-05-14T18:59:22.699Z,7.50
2018-05-14T19:01:51.986Z,6.60
2018-05-14T19:04:20.212Z,6.70
2018-05-14T19:06:48.454Z,5.00
2018-05-14T19:09:16.697Z,5.30
2018-05-14T19:11:50.844Z,4.60
2018-05-14T19:14:19.076Z,5.23
2018-05-14T19:16:53.032Z,5.17
2018-05-14T19:19:21.266Z,4.37
2018-05-14T19:21:51.091Z,7.43
2018-05-14T19:24:20.479Z,7.00
2018-05-14T19:26:48.738Z,4.93
2018-05-14T19:29:23.561Z,6.40
2018-05-14T19:31:51.740Z,6.63
2018-05-14T19:34:25.636Z,7.60
2018-05-14T19:36:55.373Z,6.43
2018-05-14T19:39:30.093Z,6.37
2018-05-14T19:41:58.319Z,4.13
2018-05-14T19:44:26.560Z,5.50
2018-05-14T19:46:55.568Z,6.63
2018-05-14T19:49:23.831Z,7.60
2018-05-14T19:51:52.825Z,5.67
2018-05-14T19:54:21.076Z,6.07
2018-05-14T19:56:50.085Z,7.67
2018-05-14T19:59:19.087Z,5.23
2018-05-14T20:01:47.628Z,5.30
2018-05-14T20:04:15.844Z,4.70
2018-05-14T20:06:44.137Z,7.30
2018-05-14T20:09:13.100Z,3.97
2018-05-14T20:11:41.330Z,7.20
2018-05-14T20:14:09.567Z,4.20
2018-05-14T20:16:37.798Z,6.73
2018-05-14T20:19:06.369Z,5.47
2018-05-14T20:21:34.575Z,5.67
2018-05-14T20:24:03.894Z,5.93
2018-05-14T20:26:32.174Z,7.40
2018-05-14T20:29:00.425Z,6.77
2018-05-14T20:31:28.688Z,4.60
2018-05-14T20:33:56.938Z,7.03
2018-05-14T20:36:25.162Z,6.90
2018-05-14T20:38:53.701Z,5.93
2018-05-14T20:41:22.020Z,6.60
2018-05-14T20:43:50.251Z,3.93
2018-05-14T20:46:18.487Z,7.43
2018-05-14T20:48:46.731Z,5.60
2018-05-14T20:51:15.095Z,5.43
2018-05-14T20:53:44.082Z,4.33
2018-05-14T20:56:12.648Z,4.17
2018-05-14T20:58:40.867Z,6.03
2018-05-14T21:01:09.115Z,5.27
2018-05-14T21:03:37.346Z,4.53
2018-05-14T21:06:05.598Z,5.83
2018-05-14T21:08:33.828Z,7.87
2018-05-14T21:11:02.832Z,6.03
2018-05-14T21:13:31.063Z,4.83
2018-05-14T21:15:59.299Z,6.33
2018-05-14T21:18:27.527Z,5.27
2018-05-14T21:20:55.772Z,4.00
2018-05-14T21:23:23.998Z,5.90
2018-05-14T21:25:52.251Z,4.83
2018-05-14T21:28:20.476Z,6.10
2018-05-14T21:30:49.009Z,6.17
2018-05-14T21:33:17.231Z,3.97
2018-05-14T21:35:45.478Z,5.00
2018-05-14T21:38:13.709Z,4.37
2018-05-14T21:40:42.203Z,5.57
2018-05-14T21:43:10.431Z,4.17
2018-05-14T21:45:38.675Z,5.90
2018-05-14T21:48:06.903Z,5.93
2018-05-14T21:50:35.147Z,6.93
2018-05-14T21:53:03.382Z,4.93
2018-05-14T21:55:32.383Z,9.10
2018-05-14T21:58:00.625Z,6.77
2018-05-14T22:00:29.124Z,5.67
2018-05-14T22:02:57.335Z,6.57
2018-05-14T22:05:25.590Z,10.57
2018-05-14T22:07:54.091Z,4.57
2018-05-14T22:10:22.321Z,7.40
2018-05-14T22:12:51.727Z,4.93
2018-05-14T22:15:19.943Z,6.00
2018-05-14T22:17:48.174Z,5.63
2018-05-14T22:20:17.182Z,6.93
2018-05-14T22:22:45.432Z,7.73
2018-05-14T22:25:14.440Z,5.43
2018-05-14T22:27:43.453Z,4.93
2018-05-14T22:30:12.099Z,5.50
2018-05-14T22:32:40.343Z,6.83
2018-05-14T22:35:08.861Z,5.57
2018-05-14T22:37:37.890Z,6.57
2018-05-14T22:40:06.127Z,4.63
2018-05-14T22:42:35.143Z,5.17
2018-05-14T22:45:03.371Z,5.50
2018-05-14T22:47:31.611Z,5.13
2018-05-14T22:49:59.842Z,5.50
2018-05-14T22:52:28.851Z,4.63
2018-05-14T22:54:57.089Z,5.50
2018-05-14T22:57:25.325Z,4.83
2018-05-14T22:59:53.551Z,5.03
2018-05-14T23:02:22.564Z,5.43
2018-05-14T23:04:50.790Z,7.20
2018-05-14T23:07:19.048Z,4.70
2018-05-14T23:09:47.274Z,5.30
2018-05-14T23:12:16.282Z,4.70
2018-05-14T23:14:44.519Z,6.67
2018-05-14T23:17:12.763Z,5.50
2018-05-14T23:19:40.996Z,7.97
2018-05-14T23:22:09.659Z,7.03
2018-05-14T23:24:38.228Z,8.87
2018-05-14T23:27:07.218Z,6.77
2018-05-14T23:29:35.448Z,5.43
2018-05-14T23:32:03.692Z,5.30
2018-05-14T23:34:32.691Z,8.00
2018-05-14T23:37:00.937Z,5.37
2018-05-14T23:39:30.030Z,6.47
2018-05-14T23:41:58.971Z,6.07
2018-05-14T23:44:27.203Z,6.87
2018-05-14T23:46:55.443Z,7.20
2018-05-14T23:49:23.956Z,7.03
2018-05-14T23:51:52.191Z,5.73
2018-05-14T23:54:20.418Z,5.20
2018-05-14T23:56:48.671Z,6.87
2018-05-14T23:59:16.906Z,5.43
